createdAt,value
2019-01-27T00:01:33.971Z,95123.00
2019-01-27T00:04:05.310Z,95115.02
2019-01-27T00:06:36.800Z,95110.02
2019-01-27T00:09:11.936Z,95101.94
2019-01-27T00:11:43.208Z,95100.50
2019-01-27T00:14:15.440Z,95092.66
2019-01-27T00:16:46.904Z,95085.90
2019-01-27T00:19:18.130Z,95084.07
2019-01-27T00:21:49.337Z,95073.98
2019-01-27T00:24:20.348Z,95059.17
2019-01-27T00:26:51.339Z,95049.16
2019-01-27T00:29:22.796Z,95044.46
2019-01-27T00:31:53.854Z,95043.00
2019-01-27T00:34:25.093Z,95045.14
2019-01-27T00:36:57.395Z,95038.92
2019-01-27T00:39:28.360Z,95027.03
2019-01-27T00:41:59.952Z,95019.79
2019-01-27T00:44:31.219Z,95019.25
2019-01-27T00:47:02.678Z,95010.89
2019-01-27T00:49:34.210Z,95007.97
2019-01-27T00:52:06.173Z,94994.59
2019-01-27T00:54:37.378Z,94993.20
2019-01-27T00:57:08.517Z,94989.46
2019-01-27T00:59:39.803Z,94987.06
2019-01-27T01:02:11.404Z,94972.59
2019-01-27T01:04:42.387Z,94976.23
2019-01-27T01:07:13.509Z,94968.45
2019-01-27T01:09:45.403Z,94969.27
2019-01-27T01:12:16.733Z,94968.63
2019-01-27T01:14:48.021Z,94963.87
2019-01-27T01:17:19.662Z,94951.62
2019-01-27T01:19:50.733Z,94945.05
2019-01-27T01:22:21.706Z,94937.58
2019-01-27T01:24:53.288Z,94936.55
2019-01-27T01:27:24.532Z,94923.08
2019-01-27T01:29:56.778Z,94927.35
2019-01-27T01:32:27.746Z,94918.27
2019-01-27T01:34:58.704Z,94923.88
2019-01-27T01:37:29.929Z,94917.77
2019-01-27T01:40:01.034Z,94913.45
2019-01-27T01:42:32.329Z,94903.62
2019-01-27T01:45:03.476Z,94901.53
2019-01-27T01:47:34.521Z,94901.48
2019-01-27T01:50:07.258Z,94898.92
2019-01-27T01:52:38.258Z,94890.55
2019-01-27T01:55:10.384Z,94874.72
2019-01-27T01:57:41.497Z,94872.47
2019-01-27T02:00:16.679Z,94878.67
2019-01-27T02:02:48.127Z,94866.69
2019-01-27T02:05:21.417Z,94857.63
2019-01-27T02:07:53.042Z,94858.16
2019-01-27T02:10:25.039Z,94845.77
2019-01-27T02:12:57.359Z,94844.80
2019-01-27T02:15:59.478Z,94836.23
2019-01-27T02:18:31.339Z,94835.88
2019-01-27T02:21:02.805Z,94834.82
2019-01-27T02:23:35.156Z,94828.11
2019-01-27T02:26:07.459Z,94813.61
2019-01-27T02:28:39.086Z,94808.78
2019-01-27T02:31:10.199Z,94801.39
2019-01-27T02:33:41.658Z,94796.49
2019-01-27T02:36:12.936Z,94787.83
2019-01-27T02:38:44.177Z,94792.74
2019-01-27T02:41:15.411Z,94785.19
2019-01-27T02:43:46.714Z,94778.24
2019-01-27T02:46:17.845Z,94780.13
2019-01-27T02:48:49.185Z,94767.28
2019-01-27T02:51:20.512Z,94770.08
2019-01-27T02:53:52.563Z,94765.75
2019-01-27T02:56:23.543Z,94750.52
2019-01-27T02:58:54.865Z,94744.73
2019-01-27T03:01:27.510Z,94733.61
2019-01-27T03:03:58.669Z,94724.63
2019-01-27T03:06:36.189Z,94719.92
2019-01-27T03:09:13.815Z,94720.42
2019-01-27T03:11:48.450Z,94716.33
2019-01-27T03:14:21.401Z,94719.34
2019-01-27T03:16:54.062Z,94710.51
2019-01-27T03:19:25.102Z,94708.59
2019-01-27T03:21:57.590Z,94706.52
2019-01-27T03:24:28.549Z,94702.30
2019-01-27T03:26:59.801Z,94694.45
2019-01-27T03:29:31.214Z,94692.19
2019-01-27T03:32:02.204Z,94686.67
2019-01-27T03:34:33.231Z,94686.28
2019-01-27T03:37:04.464Z,94682.67
2019-01-27T03:39:35.511Z,94680.81
2019-01-27T03:42:07.208Z,94676.83
2019-01-27T03:44:38.526Z,94674.33
2019-01-27T03:47:09.555Z,94672.86
2019-01-27T03:49:40.841Z,94677.52
2019-01-27T03:52:11.906Z,94672.44
2019-01-27T03:54:42.887Z,94665.91
2019-01-27T03:57:13.863Z,94667.17
2019-01-27T03:59:45.245Z,94660.72
2019-01-27T04:02:16.223Z,94648.95
2019-01-27T04:04:47.253Z,94640.25
2019-01-27T04:07:19.213Z,94630.45
2019-01-27T04:09:50.285Z,94614.45
2019-01-27T04:12:21.262Z,94611.41
2019-01-27T04:14:52.525Z,94611.68
2019-01-27T04:17:23.580Z,94596.11
2019-01-27T04:19:54.625Z,94591.34
2019-01-27T04:22:25.949Z,94584.73
2019-01-27T04:24:57.191Z,94583.73
2019-01-27T04:27:28.459Z,94588.15
2019-01-27T04:29:59.509Z,94579.34
2019-01-27T04:32:30.511Z,94575.34
2019-01-27T04:35:01.551Z,94569.66
2019-01-27T04:37:32.814Z,94557.19
2019-01-27T04:40:04.502Z,94556.30
2019-01-27T04:42:35.920Z,94550.48
2019-01-27T04:45:09.108Z,94557.45
2019-01-27T04:47:40.391Z,94555.39
2019-01-27T04:50:13.470Z,94552.59
2019-01-27T04:52:44.830Z,94552.03
2019-01-27T04:55:16.262Z,94541.26
2019-01-27T04:57:47.419Z,94534.72
2019-01-27T05:00:21.840Z,94528.33
2019-01-27T05:03:05.043Z,94517.42
2019-01-27T05:05:36.168Z,94519.13
2019-01-27T05:08:07.391Z,94514.51
2019-01-27T05:10:38.453Z,94507.03
2019-01-27T05:13:09.918Z,94506.73
2019-01-27T05:15:41.260Z,94503.44
2019-01-27T05:18:12.628Z,94499.08
2019-01-27T05:20:44.010Z,94493.45
2019-01-27T05:23:15.650Z,94484.22
2019-01-27T05:25:46.902Z,94476.14
2019-01-27T05:28:17.885Z,94482.81
2019-01-27T05:30:49.094Z,94473.09
2019-01-27T05:33:20.399Z,94477.72
2019-01-27T05:35:51.639Z,94476.01
2019-01-27T05:38:23.145Z,94467.09
2019-01-27T05:40:54.258Z,94469.27
2019-01-27T05:43:25.222Z,94472.92
2019-01-27T05:45:57.427Z,94468.80
2019-01-27T05:48:28.957Z,94467.89
2019-01-27T05:50:59.925Z,94466.66
2019-01-27T05:53:30.914Z,94465.67
2019-01-27T05:56:01.888Z,94462.20
2019-01-27T05:58:33.221Z,94452.58
2019-01-27T06:01:04.357Z,94458.78
2019-01-27T06:03:35.359Z,94455.92
2019-01-27T06:06:06.598Z,94451.59
2019-01-27T06:08:37.658Z,94455.02
2019-01-27T06:11:08.619Z,94441.75
2019-01-27T06:13:39.657Z,94439.52
2019-01-27T06:16:10.866Z,94431.28
2019-01-27T06:18:42.151Z,94432.83
2019-01-27T06:21:13.176Z,94426.88
2019-01-27T06:23:44.821Z,94422.75
2019-01-27T06:26:16.004Z,94437.41
2019-01-27T06:28:47.327Z,94438.15
2019-01-27T06:31:18.575Z,94440.48
2019-01-27T06:34:02.218Z,94437.94
2019-01-27T06:36:33.222Z,94425.98
2019-01-27T06:39:07.708Z,94429.79
2019-01-27T06:41:38.712Z,94422.72
2019-01-27T06:44:09.786Z,94413.41
2019-01-27T06:46:40.756Z,94406.22
2019-01-27T06:49:11.810Z,94403.78
2019-01-27T06:51:42.759Z,94402.14
2019-01-27T06:54:14.195Z,94399.41
2019-01-27T06:56:45.463Z,94396.64
2019-01-27T06:59:26.250Z,94404.20
2019-01-27T07:02:03.532Z,94393.16
2019-01-27T07:04:38.936Z,94395.55
2019-01-27T07:07:16.030Z,94385.27
2019-01-27T07:10:06.528Z,94385.34
2019-01-27T07:12:45.642Z,94368.97
2019-01-27T07:15:51.137Z,94370.52
2019-01-27T07:18:31.981Z,94365.41
2019-01-27T07:21:13.204Z,94363.95
2019-01-27T07:23:56.546Z,94367.40
2019-01-27T07:26:58.453Z,94351.02
2019-01-27T07:29:46.450Z,94351.50
2019-01-27T07:32:36.669Z,94346.45
2019-01-27T07:35:27.456Z,94357.00
2019-01-27T07:38:20.391Z,94349.58
2019-01-27T07:41:13.400Z,94345.77
2019-01-27T07:43:54.457Z,94345.39
2019-01-27T07:46:35.141Z,94347.17
2019-01-27T07:49:37.452Z,94340.69
2019-01-27T07:52:29.791Z,94338.67
2019-01-27T07:55:35.184Z,94329.92
2019-01-27T07:58:29.116Z,94316.04
2019-01-27T08:01:09.425Z,94313.77
2019-01-27T08:03:52.064Z,94309.82
2019-01-27T08:06:48.299Z,94320.56
2019-01-27T08:09:32.367Z,94326.42
2019-01-27T08:12:15.454Z,94325.11
2019-01-27T08:14:54.938Z,94317.52
2019-01-27T08:17:47.933Z,94310.23
2019-01-27T08:20:28.476Z,94326.39
2019-01-27T08:23:08.158Z,94324.39
2019-01-27T08:25:52.772Z,94317.73
2019-01-27T08:28:34.466Z,94311.28
2019-01-27T08:31:21.560Z,94306.23
2019-01-27T08:34:11.138Z,94308.69
2019-01-27T08:37:14.715Z,94283.61
2019-01-27T08:40:04.754Z,94284.02
2019-01-27T08:42:53.565Z,94277.41
2019-01-27T08:45:55.703Z,94285.63
2019-01-27T08:48:28.023Z,94279.08
2019-01-27T08:50:59.368Z,94265.98
2019-01-27T08:53:30.700Z,94255.27
2019-01-27T08:56:02.006Z,94255.30
2019-01-27T08:58:33.207Z,94263.24
2019-01-27T09:01:25.554Z,94270.30
2019-01-27T09:04:10.301Z,94268.27
2019-01-27T09:07:02.780Z,94278.59
2019-01-27T09:09:56.033Z,94264.36
2019-01-27T09:13:11.164Z,94268.77
2019-01-27T09:15:46.433Z,94263.30
2019-01-27T09:18:51.414Z,94262.05
2019-01-27T09:22:47.744Z,94271.89
2019-01-27T09:25:22.027Z,94274.23
2019-01-27T09:28:05.594Z,94269.42
2019-01-27T09:30:45.494Z,94269.73
2019-01-27T09:33:41.355Z,94267.44
2019-01-27T09:36:24.363Z,94256.88
2019-01-27T09:39:17.558Z,94255.33
2019-01-27T09:42:13.442Z,94249.56
2019-01-27T09:45:03.750Z,94251.47
2019-01-27T09:47:59.756Z,94244.91
2019-01-27T09:50:53.904Z,94238.67
2019-01-27T09:53:40.288Z,94235.85
2019-01-27T09:56:28.697Z,94227.98
2019-01-27T09:59:17.628Z,94226.70
2019-01-27T10:01:58.154Z,94221.66
2019-01-27T10:04:40.643Z,94226.91
2019-01-27T10:07:33.488Z,94222.13
2019-01-27T10:10:27.718Z,94228.52
2019-01-27T10:13:24.106Z,94225.36
2019-01-27T10:16:17.186Z,94224.84
2019-01-27T10:19:10.847Z,94207.02
2019-01-27T10:21:59.874Z,94217.78
2019-01-27T10:24:40.572Z,94228.02
2019-01-27T10:27:20.558Z,94223.57
2019-01-27T10:30:16.229Z,94220.11
2019-01-27T10:33:05.066Z,94218.23
2019-01-27T10:36:01.061Z,94223.73
2019-01-27T10:38:54.953Z,94208.30
2019-01-27T10:41:49.984Z,94216.97
2019-01-27T10:44:40.674Z,94217.17
2019-01-27T10:47:29.705Z,94202.48
2019-01-27T10:50:25.368Z,94199.61
2019-01-27T10:53:21.037Z,94195.67
2019-01-27T10:55:57.725Z,94194.06
2019-01-27T10:58:41.551Z,94187.52
2019-01-27T11:01:38.605Z,94187.00
2019-01-27T11:04:16.871Z,94180.69
2019-01-27T11:07:05.574Z,94170.19
2019-01-27T11:10:04.880Z,94158.90
2019-01-27T11:12:49.784Z,94155.00
2019-01-27T11:15:42.519Z,94159.73
2019-01-27T11:18:23.067Z,94164.19
2019-01-27T11:21:04.617Z,94151.31
2019-01-27T11:23:47.805Z,94160.28
2019-01-27T11:26:56.404Z,94156.85
2019-01-27T11:29:49.212Z,94152.91
2019-01-27T11:32:48.424Z,94143.98
2019-01-27T11:35:35.879Z,94136.91
2019-01-27T11:38:24.585Z,94134.56
2019-01-27T11:41:21.101Z,94124.56
2019-01-27T11:44:09.978Z,94112.49
2019-01-27T11:47:09.252Z,94103.56
2019-01-27T11:49:43.861Z,94094.39
2019-01-27T11:52:21.510Z,94083.60
2019-01-27T11:54:52.943Z,94085.43
2019-01-27T11:57:24.336Z,94091.19
2019-01-27T11:59:55.328Z,94089.12
2019-01-27T12:02:26.431Z,94088.30
2019-01-27T12:04:57.673Z,94088.06
2019-01-27T12:07:29.004Z,94094.37
2019-01-27T12:10:00.191Z,94093.08
2019-01-27T12:12:31.371Z,94083.61
2019-01-27T12:15:02.382Z,94083.61
2019-01-27T12:17:33.426Z,94074.94
2019-01-27T12:20:05.440Z,94077.05
2019-01-27T12:22:36.514Z,94083.62
2019-01-27T12:25:09.858Z,94076.78
2019-01-27T12:27:41.098Z,94067.86
2019-01-27T12:30:16.342Z,94068.39
2019-01-27T12:32:48.096Z,94062.11
2019-01-27T12:35:19.201Z,94063.38
2019-01-27T12:37:50.878Z,94061.05
2019-01-27T12:40:23.439Z,94062.34
2019-01-27T12:42:54.802Z,94054.73
2019-01-27T12:45:26.150Z,94061.30
2019-01-27T12:48:00.400Z,94048.70
2019-01-27T12:50:34.569Z,94046.84
2019-01-27T12:53:06.424Z,94044.48
2019-01-27T12:55:37.521Z,94045.80
2019-01-27T12:58:08.743Z,94042.16
2019-01-27T13:00:44.857Z,94038.21
2019-01-27T13:03:17.087Z,94034.80
2019-01-27T13:05:48.665Z,94040.56
2019-01-27T13:08:20.537Z,94035.59
2019-01-27T13:10:52.541Z,94041.10
2019-01-27T13:13:24.670Z,94041.10
2019-01-27T13:15:55.889Z,94033.77
2019-01-27T13:18:27.018Z,94027.44
2019-01-27T13:20:58.649Z,94027.20
2019-01-27T13:23:29.795Z,94025.36
2019-01-27T13:26:01.039Z,94019.31
2019-01-27T13:28:32.353Z,94016.68
2019-01-27T13:31:03.633Z,94010.41
2019-01-27T13:33:35.123Z,94016.96
2019-01-27T13:36:07.211Z,94017.99
2019-01-27T13:38:38.399Z,94014.86
2019-01-27T13:41:09.453Z,94007.52
2019-01-27T13:43:40.499Z,94010.39
2019-01-27T13:46:11.546Z,94012.76
2019-01-27T13:48:42.815Z,94008.80
2019-01-27T13:51:14.250Z,93994.13
2019-01-27T13:53:45.609Z,93998.06
2019-01-27T13:56:17.211Z,93993.87
2019-01-27T13:58:48.742Z,93995.17
2019-01-27T14:01:20.127Z,93985.20
2019-01-27T14:03:51.226Z,93980.22
2019-01-27T14:06:22.605Z,93981.27
2019-01-27T14:08:53.698Z,93981.00
2019-01-27T14:11:25.577Z,93983.62
2019-01-27T14:13:57.259Z,93979.41
2019-01-27T14:16:28.572Z,93972.08
2019-01-27T14:18:59.645Z,93984.66
2019-01-27T14:21:30.801Z,93973.88
2019-01-27T14:24:02.023Z,93977.05
2019-01-27T14:26:33.063Z,93981.77
2019-01-27T14:29:04.359Z,93975.47
2019-01-27T14:31:35.386Z,93974.13
2019-01-27T14:34:06.905Z,93982.83
2019-01-27T14:36:40.952Z,93979.69
2019-01-27T14:39:12.081Z,93982.30
2019-01-27T14:41:43.300Z,93983.37
2019-01-27T14:44:18.052Z,93979.94
2019-01-27T14:46:49.038Z,93979.42
2019-01-27T14:49:20.392Z,93980.73
2019-01-27T14:51:51.674Z,93984.14
2019-01-27T14:54:22.926Z,93976.27
2019-01-27T14:56:53.984Z,93975.22
2019-01-27T14:59:25.403Z,93971.02
2019-01-27T15:01:56.502Z,93969.17
2019-01-27T15:04:27.822Z,93966.55
2019-01-27T15:06:58.795Z,93956.59
2019-01-27T15:09:30.144Z,93959.50
2019-01-27T15:12:01.277Z,93960.28
2019-01-27T15:14:32.340Z,93968.94
2019-01-27T15:17:03.362Z,93964.20
2019-01-27T15:19:34.643Z,93965.77
2019-01-27T15:22:05.884Z,93960.82
2019-01-27T15:24:37.127Z,93962.92
2019-01-27T15:27:08.258Z,93954.53
2019-01-27T15:29:39.609Z,93961.06
2019-01-27T15:32:10.630Z,93964.75
2019-01-27T15:34:41.660Z,93955.03
2019-01-27T15:37:13.433Z,93955.05
2019-01-27T15:39:44.625Z,93948.23
2019-01-27T15:42:15.898Z,93951.36
2019-01-27T15:44:48.499Z,93954.77
2019-01-27T15:47:19.550Z,93944.82
2019-01-27T15:49:50.688Z,93945.06
2019-01-27T15:52:22.131Z,93944.54
2019-01-27T15:54:53.582Z,93943.49
2019-01-27T15:57:24.986Z,93950.05
2019-01-27T15:59:55.962Z,93946.66
2019-01-27T16:02:27.122Z,93946.12
2019-01-27T16:04:59.119Z,93946.89
2019-01-27T16:07:30.950Z,93946.40
2019-01-27T16:10:05.240Z,93950.05
2019-01-27T16:12:36.538Z,93944.30
2019-01-27T16:15:11.237Z,93952.67
2019-01-27T16:17:46.770Z,93947.41
2019-01-27T16:20:19.219Z,93947.14
2019-01-27T16:23:17.262Z,93944.55
2019-01-27T16:25:49.399Z,93938.48
2019-01-27T16:28:20.552Z,93937.70
2019-01-27T16:31:16.553Z,93939.02
2019-01-27T16:34:16.998Z,93932.98
2019-01-27T16:36:49.247Z,93935.57
2019-01-27T16:39:20.369Z,93940.81
2019-01-27T16:41:51.378Z,93941.61
2019-01-27T16:44:22.475Z,93943.66
2019-01-27T16:46:54.237Z,93941.80
2019-01-27T16:49:25.661Z,93935.28
2019-01-27T16:51:56.928Z,93933.97
2019-01-27T16:54:29.145Z,93937.59
2019-01-27T16:57:00.181Z,93947.27
2019-01-27T16:59:31.155Z,93948.88
2019-01-27T17:02:02.302Z,93949.39
2019-01-27T17:04:33.701Z,93951.26
2019-01-27T17:07:05.554Z,93951.75
2019-01-27T17:09:36.654Z,93959.91
2019-01-27T17:12:08.249Z,93963.05
2019-01-27T17:14:39.503Z,93959.61
2019-01-27T17:17:10.482Z,93960.17
2019-01-27T17:19:41.575Z,93964.34
2019-01-27T17:22:13.670Z,93966.41
2019-01-27T17:24:44.643Z,93969.53
2019-01-27T17:27:15.661Z,93978.39
2019-01-27T17:29:47.010Z,93982.06
2019-01-27T17:32:19.229Z,93984.61
2019-01-27T17:34:50.266Z,93977.80
2019-01-27T17:37:21.273Z,93970.53
2019-01-27T17:39:52.229Z,93980.75
2019-01-27T17:42:23.354Z,93975.75
2019-01-27T17:44:54.364Z,93976.76
2019-01-27T17:47:25.437Z,93981.00
2019-01-27T17:49:56.362Z,93985.48
2019-01-27T17:52:27.613Z,93994.02
2019-01-27T17:54:59.327Z,93983.52
2019-01-27T17:57:41.401Z,93992.69
2019-01-27T18:00:44.142Z,93994.81
2019-01-27T18:03:34.659Z,93993.20
2019-01-27T18:06:39.915Z,93987.19
2019-01-27T18:09:16.309Z,93979.34
2019-01-27T18:11:59.626Z,93980.08
2019-01-27T18:14:34.650Z,93967.27
2019-01-27T18:17:05.743Z,93966.73
2019-01-27T18:19:36.785Z,93972.75
2019-01-27T18:22:08.206Z,93977.00
2019-01-27T18:24:39.435Z,93986.16
2019-01-27T18:27:10.535Z,93977.54
2019-01-27T18:29:41.667Z,93982.98
2019-01-27T18:32:13.308Z,93987.19
2019-01-27T18:34:44.949Z,93989.99
2019-01-27T18:37:16.364Z,93993.98
2019-01-27T18:39:47.402Z,93998.33
2019-01-27T18:42:26.884Z,93999.64
2019-01-27T18:44:58.572Z,94008.30
2019-01-27T18:47:30.817Z,94011.73
2019-01-27T18:50:02.020Z,94011.72
2019-01-27T18:52:33.515Z,94020.88
2019-01-27T18:55:14.610Z,94015.69
2019-01-27T18:58:08.145Z,94014.66
2019-01-27T19:00:48.095Z,94020.06
2019-01-27T19:03:34.493Z,94017.53
2019-01-27T19:06:21.470Z,94019.34
2019-01-27T19:09:21.852Z,94026.88
2019-01-27T19:11:59.744Z,94029.20
2019-01-27T19:15:02.280Z,94032.66
2019-01-27T19:17:42.445Z,94033.46
2019-01-27T19:20:41.232Z,94040.03
2019-01-27T19:23:23.202Z,94040.13
2019-01-27T19:26:09.234Z,94046.20
2019-01-27T19:28:59.186Z,94052.50
2019-01-27T19:31:40.914Z,94060.90
2019-01-27T19:34:29.706Z,94064.27
2019-01-27T19:37:10.791Z,94077.39
2019-01-27T19:40:04.227Z,94087.61
2019-01-27T19:42:45.647Z,94098.20
2019-01-27T19:45:35.870Z,94098.22
2019-01-27T19:48:24.842Z,94105.39
2019-01-27T19:51:04.112Z,94109.87
2019-01-27T19:53:54.369Z,94117.48
2019-01-27T19:56:35.712Z,94125.25
2019-01-27T19:59:19.445Z,94128.11
2019-01-27T20:02:03.524Z,94140.84
2019-01-27T20:04:59.317Z,94144.99
2019-01-27T20:07:58.799Z,94157.50
2019-01-27T20:11:04.386Z,94153.16
2019-01-27T20:13:43.771Z,94167.08
2019-01-27T20:16:37.921Z,94170.20
2019-01-27T20:19:19.126Z,94180.64
2019-01-27T20:22:00.953Z,94183.11
2019-01-27T20:24:38.946Z,94189.98
2019-01-27T20:27:19.613Z,94194.23
2019-01-27T20:30:22.276Z,94198.45
2019-01-27T20:33:17.914Z,94206.69
2019-01-27T20:36:08.448Z,94215.75
2019-01-27T20:39:04.703Z,94225.99
2019-01-27T20:42:10.831Z,94236.44
2019-01-27T20:44:50.264Z,94242.20
2019-01-27T20:47:28.656Z,94248.38
2019-01-27T20:50:14.178Z,94256.70
2019-01-27T20:53:07.374Z,94264.56
2019-01-27T20:56:03.672Z,94268.76
2019-01-27T20:58:59.809Z,94280.84
2019-01-27T21:01:59.006Z,94288.67
2019-01-27T21:04:47.585Z,94298.64
2019-01-27T21:07:40.917Z,94295.77
2019-01-27T21:10:34.630Z,94310.56
2019-01-27T21:13:11.894Z,94312.42
2019-01-27T21:15:58.559Z,94321.73
2019-01-27T21:18:51.558Z,94328.94
2019-01-27T21:21:22.747Z,94335.75
2019-01-27T21:23:54.426Z,94344.02
2019-01-27T21:26:26.363Z,94342.22
2019-01-27T21:28:57.419Z,94355.17
2019-01-27T21:31:28.466Z,94349.23
2019-01-27T21:33:59.975Z,94352.16
2019-01-27T21:36:31.001Z,94358.53
2019-01-27T21:39:01.975Z,94361.33
2019-01-27T21:41:33.840Z,94362.73
2019-01-27T21:44:05.120Z,94365.97
2019-01-27T21:46:36.659Z,94371.88
2019-01-27T21:49:07.623Z,94378.78
2019-01-27T21:51:39.263Z,94377.86
2019-01-27T21:54:10.640Z,94380.80
2019-01-27T21:56:41.661Z,94379.86
2019-01-27T21:59:13.294Z,94389.86
2019-01-27T22:01:44.614Z,94394.85
2019-01-27T22:04:15.955Z,94406.63
2019-01-27T22:06:47.239Z,94406.77
2019-01-27T22:09:18.801Z,94407.59
2019-01-27T22:11:49.790Z,94416.08
2019-01-27T22:14:21.919Z,94424.75
2019-01-27T22:16:53.245Z,94431.59
2019-01-27T22:19:24.418Z,94443.57
2019-01-27T22:21:56.002Z,94459.77
2019-01-27T22:24:27.002Z,94460.11
2019-01-27T22:26:58.003Z,94464.67
2019-01-27T22:29:29.628Z,94472.20
2019-01-27T22:32:00.630Z,94480.23
2019-01-27T22:34:31.845Z,94479.08
2019-01-27T22:37:03.451Z,94478.31
2019-01-27T22:39:34.457Z,94473.08
2019-01-27T22:42:05.767Z,94479.95
2019-01-27T22:44:37.644Z,94476.83
2019-01-27T22:47:08.650Z,94484.28
2019-01-27T22:49:39.602Z,94489.92
2019-01-27T22:52:11.331Z,94495.36
2019-01-27T22:54:42.349Z,94497.52
2019-01-27T22:57:13.362Z,94502.03
2019-01-27T22:59:44.981Z,94513.33
2019-01-27T23:02:16.527Z,94522.21
2019-01-27T23:04:48.351Z,94518.30
2019-01-27T23:07:19.350Z,94522.72
2019-01-27T23:09:50.728Z,94525.16
2019-01-27T23:12:21.741Z,94533.89
2019-01-27T23:14:52.728Z,94533.30
2019-01-27T23:17:23.833Z,94529.70
2019-01-27T23:19:55.356Z,94536.59
2019-01-27T23:22:26.870Z,94542.10
2019-01-27T23:24:58.084Z,94539.06
2019-01-27T23:27:29.082Z,94546.38
2019-01-27T23:30:00.035Z,94543.72
2019-01-27T23:32:31.049Z,94549.75
2019-01-27T23:35:02.130Z,94552.83
2019-01-27T23:37:33.531Z,94555.23
2019-01-27T23:40:05.551Z,94559.89
2019-01-27T23:42:37.594Z,94553.49
2019-01-27T23:45:09.990Z,94553.66
2019-01-27T23:47:40.992Z,94559.20
2019-01-27T23:50:12.614Z,94558.17
2019-01-27T23:52:43.680Z,94557.63
2019-01-27T23:55:14.781Z,94572.02
2019-01-27T23:57:45.921Z,94567.34
